• Join FlightAware (Why Join?)
  • Login
  • US Flag 
03:15AM EDT


 

Airport Tracker/Info


-or-


 

Live Flight TrackerFlight Track Log ✈ NDU7 ✈ 15-Aug-2013 ✈ KGFK - KSTP

Flight Track Log - Related Links

Times and Time Zones

All times are in EDT time to prevent confusion due to time zone crossing. See the NDU7 flight status page for this flight to view local times or setup timezone preferences in your user account.

Time Position Orientation Groundspeed Altitude Reporting Facility
EDT Latitude Longitude Course Direction KTS MPH feet Rate Location/Type
10:07PM 47.9333 -97.1628 141° Southeast 66 76 1,400  Level Minneapolis Center
10:09PM 47.9150 -97.1408 141° Southeast 72 83 2,200 600 Climbing Minneapolis Center
10:10PM 47.9025 -97.1117 123° Southeast 84 97 2,800 540 Climbing Minneapolis Center
10:11PM 47.8858 -97.0864 135° Southeast 84 97 3,400 540 Climbing Minneapolis Center
10:12PM 47.8672 -97.0614 138° Southeast 91 105 3,900 540 Climbing Minneapolis Center
10:13PM 47.8483 -97.0303 132° Southeast 96 110 4,500 540 Climbing Minneapolis Center
10:14PM 47.8314 -97.0017 131° Southeast 97 112 5,000 240 Climbing Minneapolis Center
10:15PM 47.8081 -96.9683 136° Southeast 110 127 5,100  Climbing Minneapolis Center
10:16PM 47.7825 -96.9353 139° Southeast 122 140 5,100 240 Level Minneapolis Center
10:17PM 47.7592 -96.9017 136° Southeast 109 125 5,600 480 Climbing Minneapolis Center
10:18PM 47.7444 -96.8761 131° Southeast 90 104 6,100 540 Climbing Minneapolis Center
10:19PM 47.7256 -96.8483 135° Southeast 91 105 6,700 480 Climbing Minneapolis Center
10:20PM 47.7092 -96.8231 134° Southeast 89 102 7,100 420 Climbing Minneapolis Center
10:21PM 47.6903 -96.7953 135° Southeast 93 107 7,600 480 Climbing Minneapolis Center
10:22PM 47.6711 -96.7644 133° Southeast 92 106 8,100 360 Climbing Minneapolis Center
10:23PM 47.6458 -96.7286 136° Southeast 91 105 8,700 240 Climbing Minneapolis Center
10:25PM 47.6228 -96.6958 136° Southeast 95 109 8,900 120 Climbing Minneapolis Center
10:26PM 47.5967 -96.6614 138° Southeast 117 135 9,000  Climbing Minneapolis Center
10:27PM 47.5708 -96.6258 137° Southeast 121 139 8,900 -60 Descending Minneapolis Center
10:28PM 47.5467 -96.5864 132° Southeast 123 142 8,900  Level Minneapolis Center
10:29PM 47.5233 -96.5517 135° Southeast 124 143 8,900  Level Minneapolis Center
10:30PM 47.4986 -96.5153 135° Southeast 121 139 8,900  Level Minneapolis Center
10:31PM 47.4736 -96.4797 136° Southeast 119 137 8,900  Level Minneapolis Center
10:32PM 47.4514 -96.4469 135° Southeast 118 136 8,900  Level Minneapolis Center
10:33PM 47.4269 -96.4103 135° Southeast 120 138 8,900  Level Minneapolis Center
10:34PM 47.4006 -96.3761 139° Southeast 121 139 8,900  Level Minneapolis Center
10:35PM 47.3800 -96.3494 139° Southeast 122 140 9,000  Climbing Minneapolis Center
10:36PM 47.3483 -96.3106 140° Southeast 122 140 8,900 -300 Descending Minneapolis Center
10:37PM 47.3214 -96.2756 139° Southeast 124 143 8,400 -840 Descending Minneapolis Center
10:38PM 47.2939 -96.2333 134° Southeast 136 157 7,300 -1,080 Descending Minneapolis Center
10:39PM 47.2681 -96.1914 132° Southeast 143 165 6,200 -960 Descending Minneapolis Center
10:40PM 47.2408 -96.1494 134° Southeast 136 157 5,400 -420 Descending Minneapolis Center
10:41PM 47.2164 -96.1153 136° Southeast 120 138 5,400  Level Minneapolis Center
10:42PM 47.1939 -96.0822 135° Southeast 119 137 5,400  Level Minneapolis Center
10:43PM 47.1692 -96.0456 135° Southeast 122 140 5,400  Level Minneapolis Center
10:44PM 47.1444 -96.0086 135° Southeast 121 139 5,400  Level Minneapolis Center
10:45PM 47.1192 -95.9714 135° Southeast 123 142 5,400  Level Minneapolis Center
10:46PM 47.0956 -95.9381 136° Southeast 121 139 5,400  Level Minneapolis Center
10:47PM 47.0708 -95.9028 136° Southeast 119 137 5,400  Level Minneapolis Center
10:48PM 47.0467 -95.8683 136° Southeast 118 136 5,500  Climbing Minneapolis Center
10:49PM 47.0225 -95.8375 139° Southeast 121 139 5,400 -60 Descending Minneapolis Center
10:50PM 46.9969 -95.8006 135° Southeast 122 140 5,400  Level Minneapolis Center
10:51PM 46.9717 -95.7658 137° Southeast 121 139 5,500  Climbing Minneapolis Center
10:52PM 46.9483 -95.7314 135° Southeast 124 143 5,500  Level Minneapolis Center
10:53PM 46.9233 -95.6989 138° Southeast 116 133 5,500  Level Minneapolis Center
10:54PM 46.9036 -95.6719 137° Southeast 120 138 5,600  Climbing Minneapolis Center
10:55PM 46.8742 -95.6331 138° Southeast 119 137 5,600 -60 Level Minneapolis Center
10:56PM 46.8486 -95.6000 138° Southeast 119 137 5,500 -60 Descending Minneapolis Center
10:57PM 46.8225 -95.5658 138° Southeast 119 137 5,500  Level Minneapolis Center
10:58PM 46.8003 -95.5311 133° Southeast 123 142 5,500  Level Minneapolis Center
10:59PM 46.7744 -95.4967 138° Southeast 120 138 5,500  Level Minneapolis Center
11:00PM 46.7464 -95.4608 139° Southeast 113 130 5,500  Level Minneapolis Center
11:01PM 46.7225 -95.4350 143° Southeast 116 133 5,500  Level Minneapolis Center
11:03PM 46.6958 -95.3964 135° Southeast 116 133 5,500  Level Minneapolis Center
11:04PM 46.6758 -95.3606 129° Southeast 115 132 5,500  Level Minneapolis Center
11:05PM 46.6536 -95.3258 133° Southeast 116 133 5,500 -60 Level Minneapolis Center
11:06PM 46.6289 -95.2964 141° Southeast 117 135 5,400 -60 Descending Minneapolis Center
11:07PM 46.6047 -95.2631 137° Southeast 119 137 5,400  Level Minneapolis Center
11:08PM 46.5856 -95.2367 137° Southeast 119 137 5,500  Climbing Minneapolis Center
11:09PM 46.5564 -95.1978 137° Southeast 119 137 5,400 -60 Descending Minneapolis Center
11:10PM 46.5269 -95.1608 139° Southeast 119 137 5,400  Level Minneapolis Center
11:11PM 46.5044 -95.1292 136° Southeast 117 135 5,500  Climbing Minneapolis Center
11:12PM 46.4792 -95.0975 139° Southeast 117 135 5,500  Level Minneapolis Center
11:13PM 46.4558 -95.0656 137° Southeast 117 135 5,500  Level Minneapolis Center
11:14PM 46.4319 -95.0308 135° Southeast 118 136 5,500  Level Minneapolis Center
11:15PM 46.4089 -94.9958 134° Southeast 119 137 5,500  Level Minneapolis Center
11:16PM 46.3847 -94.9633 137° Southeast 119 137 5,500  Level Minneapolis Center
11:17PM 46.3628 -94.9283 132° Southeast 119 137 5,500  Level Minneapolis Center
11:18PM 46.3325 -94.8886 138° Southeast 120 138 5,500  Level Minneapolis Center
11:19PM 46.3100 -94.8544 134° Southeast 120 138 5,500  Level Minneapolis Center
11:20PM 46.2858 -94.8217 137° Southeast 119 137 5,500  Level Minneapolis Center
11:21PM 46.2611 -94.7889 137° Southeast 120 138 5,500  Level Minneapolis Center
11:22PM 46.2361 -94.7547 137° Southeast 121 139 5,500  Level Minneapolis Center
11:23PM 46.2111 -94.7239 140° Southeast 121 139 5,500  Level Minneapolis Center
11:24PM 46.1836 -94.6819 133° Southeast 120 138 5,500  Level Minneapolis Center
11:25PM 46.1583 -94.6478 137° Southeast 121 139 5,500  Level Minneapolis Center
11:26PM 46.1342 -94.6153 137° Southeast 121 139 5,500  Level Minneapolis Center
11:27PM 46.1042 -94.5792 140° Southeast 120 138 5,500  Level Minneapolis Center
11:28PM 46.0808 -94.5469 136° Southeast 119 137 5,500  Level Minneapolis Center
11:29PM 46.0575 -94.5139 135° Southeast 116 133 5,500  Level Minneapolis Center
11:30PM 46.0322 -94.4819 139° Southeast 119 137 5,500  Level Minneapolis Center
11:31PM 46.0064 -94.4489 138° Southeast 121 139 5,500  Level Minneapolis Center
11:32PM 45.9814 -94.4167 138° Southeast 121 139 5,500  Level Minneapolis Center
11:33PM 45.9575 -94.3825 135° Southeast 121 139 5,500  Level Minneapolis Center
11:34PM 45.9322 -94.3525 140° Southeast 120 138 5,500  Level Minneapolis Center
11:35PM 45.9072 -94.3203 138° Southeast 120 138 5,600  Climbing Minneapolis Center
11:36PM 45.8811 -94.2914 142° Southeast 120 138 5,600  Level Minneapolis Center
11:37PM 45.8583 -94.2556 132° Southeast 120 138 5,600 -60 Level Minneapolis Center
11:38PM 45.8325 -94.2111 130° Southeast 121 139 5,500 -60 Descending Minneapolis Center
11:39PM 45.8044 -94.1864 148° Southeast 119 137 5,500  Level Minneapolis Center
11:41PM 45.7806 -94.1556 138° Southeast 116 133 5,500  Level Minneapolis Center
11:42PM 45.7567 -94.1225 136° Southeast 118 136 5,500  Level Minneapolis Center
11:43PM 45.7325 -94.0892 136° Southeast 120 138 5,500  Level Minneapolis Center
11:44PM 45.7075 -94.0578 139° Southeast 119 137 5,500  Level Minneapolis Center
11:45PM 45.6833 -94.0253 137° Southeast 119 137 5,500  Level Minneapolis Center
11:46PM 45.6578 -93.9944 140° Southeast 120 138 5,500  Level Minneapolis Center
11:47PM 45.6333 -93.9611 136° Southeast 121 139 5,500  Level Minneapolis Center
11:48PM 45.6100 -93.9300 137° Southeast 116 133 5,500  Level Minneapolis Center
11:49PM 45.5811 -93.8911 137° Southeast 119 137 5,500  Level Minneapolis Center
11:50PM 45.5567 -93.8592 138° Southeast 120 138 5,600 -60 Climbing Minneapolis Center
11:51PM 45.5275 -93.8219 138° Southeast 119 137 5,400 -60 Descending Minneapolis Center
11:52PM 45.5047 -93.7908 136° Southeast 113 130 5,500 60 Climbing Minneapolis Center
11:53PM 45.4803 -93.7631 141° Southeast 112 129 5,600  Climbing Minneapolis Center
11:54PM 45.4550 -93.7364 143° Southeast 114 131 5,500 -60 Descending Minneapolis Center
11:55PM 45.4250 -93.7003 140° Southeast 117 135 5,500  Level Minneapolis Center
11:56PM 45.4014 -93.6694 137° Southeast 115 132 5,500  Level Minneapolis Center
11:57PM 45.3769 -93.6406 140° Southeast 115 132 5,500  Level Minneapolis Center
11:58PM 45.3519 -93.6114 141° Southeast 116 133 5,500  Level Minneapolis Center
11:59PM 45.3308 -93.5778 132° Southeast 115 132 5,600  Climbing Minneapolis Center
12:00AM 45.3028 -93.5403 137° Southeast 117 135 5,500  Descending Minneapolis Center
12:01AM 45.2783 -93.5100 139° Southeast 117 135 5,600  Climbing Minneapolis Center
12:02AM 45.2544 -93.4792 138° Southeast 116 133 5,500 -60 Descending Minneapolis Center
12:03AM 45.2317 -93.4461 134° Southeast 117 135 5,500  Level Minneapolis Center
12:04AM 45.2103 -93.4131 133° Southeast 115 132 5,600 -180 Climbing Minneapolis Center
12:05AM 45.1875 -93.3808 135° Southeast 117 135 5,200 -540 Descending Minneapolis Center
12:06AM 45.1625 -93.3458 135° Southeast 125 144 4,600 -540 Descending Minneapolis Center
12:07AM 45.1369 -93.3117 137° Southeast 125 144 4,200 -300 Descending Minneapolis Center
12:08AM 45.1139 -93.2808 137° Southeast 116 133 4,100 -120 Descending Minneapolis Center
12:10AM 45.0856 -93.2524 145° Southeast  Level FlightAware Approximate
12:17AM 44.9333 -93.0500 133° Southeast  Level FlightAware Approximate
12:18AM 44.9346 -93.0603 133° Southeast  Level Estimated
12:19AM 44.9346 -93.0603 133° Southeast  Level Estimated
12:20AM 44.9346 -93.0603 133° Southeast  Level Estimated
12:21AM 44.9346 -93.0603 133° Southeast  Level Estimated
12:22AM 44.9346 -93.0603 133° Southeast  Level Estimated
12:23AM 44.9346 -93.0603 133° Southeast  Level Estimated
12:24AM 44.9346 -93.0603 133° Southeast  Level Estimated
12:25AM 44.9346 -93.0603 133° Southeast  Level Estimated
12:26AM 44.9346 -93.0603 133° Southeast  Level Estimated
12:27AM 44.9346 -93.0603 133° Southeast  Level Estimated